首页
METAR-TAF:

METAR-TAF

机场 :

Greenwood, 密西西比州, 美国

纬度: 33-29-33N, 经度: 090-05-01W, 海拔: 47米

当前天气观测

该预报发布于16分钟前的05:53 UTC
风速6节,风向西转西南
温度 17°C
湿度 77%
气压 1008 hPa
能見度: 16.1公里
多云层高于6000英尺

METAR: KGWO 260553Z AUTO 24006KT 10SM BKN060 17/13 A2978 RMK AO2 PRESRR SLP084 60017 T01720128 10222 20139 402500139 53020

时间: 00:09 (06:09 UTC)

预报

该预报发布于43分钟前的05:26 UTC
预报有效从26日的 06点(UTC)到 27日的 06点(UTC)
风速6节,风向南转西南
能見度: 10公里
多云层高于4500英尺
从 26日的 1300点(UTC)
风速5节,风向西转西南
能見度: 10公里
少量云层高于25000英尺

TAF: KGWO 260526Z 2606/2706 21006KT P6SM BKN045 FM261300 24005KT P6SM FEW250

超过4000个机场的气象观测和天气预报(METAR&TAF报告)。

可查询的气象台以黄色和红色小点在地图上表示。

将鼠标移到小点上方,可查看气象台名称。

然后点击查看天气观测和预报。

如需切换地图:点击带黑十字的绿色按钮放大地图;点击带横线的绿色按钮缩小地图;或者点击绿色箭头查看邻近地区的地图。


METAR-TAF: